Terminal Aerodrome Forecast
Issued by NWS

Home | Current Version | Previous Version | Text Only | Print | Product List | Glossary On
Versions: 1 2 3 4 5 6 7 8 9 10 11 12 13 14 15 16 17 18 19 20 21
000
FTUS43 KBIS 232328
TAFJMS
TAF
KJMS 232328Z 2400/2424 03014G22KT P6SM SCT040 BKN060
     FM240100 03008KT P6SM SCT070
     FM241200 13012G20KT P6SM FEW200
     FM242000 16015G24KT P6SM FEW120=

USA.gov is the U.S. government's official web portal to all federal, state and local government web resources and services.